DAUL

Laghouat Airport

Laghouat, Algeria
METAR DAUL 181400Z 00000KT 9999 FEW030 15/M01 Q1016
Observed Flight Rules
Jan-18 @ 14:00 UTC (33 minutes ago) Visual Flight Rules
Visibility Clouds
10,000+ meters
  • Few at 3,000' AGL
Temperatures Readings
Current 15°C / 59°F
Dewpoint -1°C / 30°F
Humidity 34%
Altimeter 30" Hg
Pressure 1015.92 hPa
Elevation 765
METAR DAUL 181400Z 00000KT 9999 FEW030 15/M01 Q1016
Observed Flight Rules
Jan-18 @ 14:00 UTC
(33 minutes ago)
VFR
Clouds
  • Few at 3,000' AGL
Temperature Dewpoint
15°C / 59°F -1°C / 30°F
Humidity Altimeter Pressure
34% 30" Hg 1015.92 hPa